createdAt,value
2023-05-17T03:03:01.787Z,6.42
2023-05-17T03:04:04.652Z,6.40
2023-05-17T03:05:08.514Z,6.35
2023-05-17T03:06:12.546Z,6.34
2023-05-17T03:07:15.532Z,6.35
2023-05-17T03:08:17.990Z,6.30
2023-05-17T03:09:22.658Z,6.30
2023-05-17T03:10:25.619Z,6.29
2023-05-17T03:11:28.578Z,6.29
2023-05-17T03:12:32.383Z,6.28
2023-05-17T03:13:35.176Z,6.26
2023-05-17T03:14:40.006Z,6.26
2023-05-17T03:15:42.728Z,6.25
2023-05-17T03:16:44.629Z,6.29
2023-05-17T03:17:47.497Z,6.29
2023-05-17T03:18:52.097Z,6.25
2023-05-17T03:19:55.867Z,6.24
2023-05-17T03:20:57.726Z,6.22
2023-05-17T03:22:01.197Z,6.16
2023-05-17T03:23:02.996Z,6.11
2023-05-17T03:24:06.070Z,6.10
2023-05-17T03:25:08.584Z,6.08
2023-05-17T03:26:12.426Z,6.07
2023-05-17T03:27:20.763Z,6.02
2023-05-17T03:28:26.416Z,5.98
2023-05-17T03:29:28.265Z,5.94
2023-05-17T03:30:30.988Z,5.92
2023-05-17T03:31:33.156Z,5.87
2023-05-17T03:32:36.050Z,5.88
2023-05-17T03:33:38.099Z,5.88
2023-05-17T03:34:42.224Z,5.88
2023-05-17T03:35:44.020Z,5.86
2023-05-17T03:36:46.924Z,5.86
2023-05-17T03:37:48.743Z,5.86
2023-05-17T03:38:51.553Z,5.87
2023-05-17T03:39:53.415Z,5.84
2023-05-17T03:40:56.336Z,5.83
2023-05-17T03:41:58.231Z,5.82
2023-05-17T03:43:01.913Z,5.81
2023-05-17T03:44:04.700Z,5.82
2023-05-17T03:45:09.277Z,5.81
2023-05-17T03:46:11.718Z,5.81
2023-05-17T03:47:14.588Z,5.81
2023-05-17T03:48:16.453Z,5.81
2023-05-17T03:49:20.973Z,5.80
2023-05-17T03:50:25.303Z,5.80
2023-05-17T03:51:28.065Z,5.82
2023-05-17T03:52:29.877Z,5.81
2023-05-17T03:53:32.636Z,5.81
2023-05-17T03:54:34.562Z,5.80
2023-05-17T03:55:40.036Z,5.80
2023-05-17T03:56:46.942Z,5.77
2023-05-17T03:57:49.578Z,5.76
2023-05-17T03:58:51.880Z,5.75
2023-05-17T03:59:54.741Z,5.73
2023-05-17T04:00:57.155Z,5.74
2023-05-17T04:01:59.895Z,5.73
2023-05-17T04:03:01.905Z,5.72
2023-05-17T04:04:05.941Z,5.73
2023-05-17T04:05:08.197Z,5.74
2023-05-17T04:06:12.169Z,5.75
2023-05-17T04:07:14.018Z,5.75
2023-05-17T04:08:16.689Z,5.77
2023-05-17T04:09:18.519Z,5.77
2023-05-17T04:10:21.380Z,5.78
2023-05-17T04:11:24.283Z,5.78
2023-05-17T04:12:27.072Z,5.77
2023-05-17T04:13:28.858Z,5.76
2023-05-17T04:14:33.205Z,5.76
2023-05-17T04:15:35.307Z,5.76
2023-05-17T04:16:38.986Z,5.74
2023-05-17T04:17:40.911Z,5.73
2023-05-17T04:18:45.327Z,5.73
2023-05-17T04:19:47.574Z,5.74
2023-05-17T04:20:50.756Z,5.76
2023-05-17T04:21:54.806Z,5.77
2023-05-17T04:23:00.070Z,5.78
2023-05-17T04:24:04.749Z,5.80
2023-05-17T04:25:08.350Z,5.83
2023-05-17T04:26:11.260Z,5.84
2023-05-17T04:27:15.787Z,5.86
2023-05-17T04:28:18.131Z,5.88
2023-05-17T04:29:21.277Z,5.90
2023-05-17T04:30:24.135Z,5.92
2023-05-17T04:31:26.946Z,5.92
2023-05-17T04:32:29.424Z,5.96
2023-05-17T04:33:33.308Z,5.99
2023-05-17T04:34:35.359Z,5.99
2023-05-17T04:35:40.141Z,6.02
2023-05-17T04:36:42.041Z,6.05
2023-05-17T04:37:46.591Z,6.08
2023-05-17T04:38:56.036Z,6.14
2023-05-17T04:40:02.448Z,6.18
2023-05-17T04:41:07.085Z,6.22
2023-05-17T04:42:12.462Z,6.26
2023-05-17T04:43:18.980Z,6.28
2023-05-17T04:44:22.521Z,6.31
2023-05-17T04:45:24.982Z,6.35
2023-05-17T04:46:27.731Z,6.40
2023-05-17T04:47:29.683Z,6.42
2023-05-17T04:48:33.839Z,6.45
2023-05-17T04:49:36.004Z,6.47
2023-05-17T04:50:38.719Z,6.47
2023-05-17T04:51:40.472Z,6.49
2023-05-17T04:52:46.623Z,6.51
2023-05-17T04:53:49.307Z,6.55
2023-05-17T04:54:52.979Z,6.54
2023-05-17T04:55:57.161Z,6.58
2023-05-17T04:57:00.216Z,6.62
2023-05-17T04:58:24.185Z,6.63
2023-05-17T04:59:28.866Z,6.67
2023-05-17T05:00:31.903Z,6.70
2023-05-17T06:50:23.069Z,11.15
2023-05-17T06:51:25.893Z,11.21
2023-05-17T06:52:27.791Z,11.31
2023-05-17T06:53:30.530Z,11.37
2023-05-17T06:54:32.390Z,11.37
2023-05-17T06:55:35.304Z,11.36
2023-05-17T06:56:37.069Z,11.34
2023-05-17T06:57:39.855Z,11.39
2023-05-17T06:58:41.689Z,11.36
2023-05-17T06:59:44.441Z,11.32
2023-05-17T07:00:47.422Z,11.33
2023-05-17T07:01:50.196Z,11.37
2023-05-17T07:02:52.335Z,11.41
2023-05-17T07:03:55.248Z,11.53
2023-05-17T07:04:57.252Z,11.70
2023-05-17T07:06:01.243Z,11.84
2023-05-17T07:07:03.072Z,11.92
2023-05-17T07:08:06.124Z,11.97
2023-05-17T07:09:08.167Z,12.02
2023-05-17T07:10:13.362Z,12.05
2023-05-17T07:11:16.097Z,12.13
2023-05-17T07:12:17.890Z,12.12
2023-05-17T07:13:20.773Z,12.14
2023-05-17T07:14:22.667Z,11.93
2023-05-17T07:15:25.529Z,11.84
2023-05-17T07:16:28.703Z,11.82
2023-05-17T07:17:30.684Z,11.77
2023-05-17T07:18:34.292Z,11.75
2023-05-17T07:19:36.266Z,11.76
2023-05-17T07:20:39.409Z,11.67
2023-05-17T07:21:42.506Z,11.75
2023-05-17T07:22:45.205Z,11.84
2023-05-17T07:23:46.985Z,11.89
2023-05-17T07:24:49.690Z,11.96
2023-05-17T07:25:52.703Z,12.07
2023-05-17T07:26:55.567Z,12.11
2023-05-17T07:27:58.269Z,12.17
2023-05-17T07:29:00.107Z,12.15
2023-05-17T07:30:03.546Z,12.21
2023-05-17T07:31:05.355Z,12.28
2023-05-17T07:32:09.422Z,12.38
2023-05-17T07:33:12.086Z,12.35
2023-05-17T07:34:14.221Z,12.36
2023-05-17T07:35:18.242Z,12.26
2023-05-17T07:36:21.528Z,12.26
2023-05-17T07:37:26.096Z,12.29
2023-05-17T07:38:27.808Z,12.22
2023-05-17T07:39:30.724Z,12.28
2023-05-17T07:40:32.487Z,12.26
2023-05-17T07:41:35.317Z,12.30
2023-05-17T07:42:37.126Z,12.39
2023-05-17T07:43:40.450Z,12.41
2023-05-17T07:44:42.173Z,12.35
2023-05-17T07:45:44.892Z,12.40
2023-05-17T07:46:46.687Z,12.44
2023-05-17T07:47:49.484Z,12.43
2023-05-17T07:48:51.404Z,12.60
2023-05-17T07:49:54.294Z,12.82
2023-05-17T07:50:57.207Z,13.10
2023-05-17T07:51:59.244Z,13.25
2023-05-17T07:53:03.359Z,13.40
2023-05-17T07:54:05.446Z,13.44
2023-05-17T07:55:08.950Z,13.49
2023-05-17T07:56:10.734Z,13.32
2023-05-17T07:57:13.464Z,13.17
2023-05-17T07:58:15.249Z,13.07
2023-05-17T07:59:17.978Z,13.03
2023-05-17T08:00:22.664Z,12.96
2023-05-17T08:01:25.422Z,12.97
2023-05-17T08:02:28.142Z,12.90
2023-05-17T08:03:30.976Z,12.91
2023-05-17T08:04:32.797Z,12.90
2023-05-17T08:05:35.721Z,12.94
2023-05-17T08:06:38.893Z,12.84
2023-05-17T08:07:42.766Z,12.85
2023-05-17T08:08:46.825Z,12.99
2023-05-17T08:09:48.637Z,13.10
2023-05-17T08:10:51.495Z,13.01
2023-05-17T08:11:53.298Z,13.07
2023-05-17T08:12:56.364Z,13.19
2023-05-17T08:13:58.145Z,13.31
2023-05-17T08:15:00.909Z,13.45
2023-05-17T08:16:12.870Z,13.66
2023-05-17T08:17:16.634Z,13.68
2023-05-17T08:18:18.515Z,13.71
2023-05-17T08:19:21.410Z,13.70
2023-05-17T08:20:24.429Z,13.63
2023-05-17T08:21:27.176Z,13.60
2023-05-17T08:22:29.980Z,13.55
2023-05-17T08:23:32.722Z,13.43
2023-05-17T08:24:36.866Z,13.47
2023-05-17T08:25:38.707Z,13.54
2023-05-17T08:26:41.768Z,13.51
2023-05-17T08:27:44.079Z,13.35
2023-05-17T08:28:46.825Z,13.08
2023-05-17T08:29:49.523Z,12.95
2023-05-17T08:30:51.349Z,13.04
2023-05-17T08:31:55.868Z,13.09
2023-05-17T08:32:57.899Z,13.17
2023-05-17T08:34:01.080Z,13.23
2023-05-17T08:35:03.931Z,13.29
2023-05-17T08:36:08.190Z,13.29
2023-05-17T08:37:12.990Z,13.28
2023-05-17T08:38:14.802Z,13.38
2023-05-17T08:39:17.546Z,13.39
2023-05-17T08:40:23.121Z,13.36
2023-05-17T08:41:25.197Z,13.17
2023-05-17T08:42:29.248Z,12.97
2023-05-17T08:43:33.047Z,12.88
2023-05-17T08:44:38.682Z,12.82
2023-05-17T08:45:40.652Z,12.78
2023-05-17T08:46:45.091Z,12.80
2023-05-17T08:47:47.092Z,12.88
2023-05-17T08:48:52.005Z,13.04
2023-05-17T08:49:57.669Z,13.11
2023-05-17T08:51:01.500Z,13.22
2023-05-17T08:52:09.839Z,13.30
2023-05-17T08:53:14.756Z,13.27
2023-05-17T08:54:16.835Z,13.32
2023-05-17T08:55:20.304Z,13.43
2023-05-17T08:56:26.697Z,13.54
2023-05-17T08:57:31.398Z,13.58
2023-05-17T08:58:51.729Z,13.46
2023-05-17T09:00:00.373Z,13.46
2023-05-17T09:01:03.353Z,13.30
2023-05-17T09:02:07.315Z,13.31
2023-05-17T09:03:09.520Z,13.38
2023-05-17T09:04:12.385Z,13.39
2023-05-17T09:05:17.239Z,13.53
2023-05-17T09:06:22.734Z,13.54
2023-05-17T09:07:25.725Z,13.55
2023-05-17T09:08:30.175Z,13.57
2023-05-17T09:09:33.979Z,13.57
2023-05-17T09:10:37.099Z,13.63
2023-05-17T09:11:41.163Z,13.68
2023-05-17T09:12:45.095Z,13.74
2023-05-17T09:13:46.966Z,13.74
2023-05-17T09:14:50.395Z,13.81
2023-05-17T09:15:54.098Z,13.74
2023-05-17T09:16:57.477Z,13.77
2023-05-17T09:18:00.263Z,13.77
2023-05-17T09:19:04.072Z,13.85
2023-05-17T09:20:08.537Z,13.85
2023-05-17T09:21:14.632Z,13.83
2023-05-17T09:22:19.764Z,13.92
2023-05-17T09:23:23.282Z,14.02
2023-05-17T09:24:30.883Z,14.19
2023-05-17T09:25:34.252Z,14.30
2023-05-17T09:26:42.625Z,14.34
2023-05-17T09:27:45.342Z,14.40
2023-05-17T09:28:48.056Z,14.44
2023-05-17T09:29:50.898Z,14.25
2023-05-17T09:30:52.756Z,14.15
2023-05-17T09:31:55.803Z,13.98
2023-05-17T09:32:58.850Z,13.92
2023-05-17T09:34:02.023Z,13.88
2023-05-17T09:35:04.121Z,13.78
2023-05-17T09:36:17.235Z,13.85
2023-05-17T09:37:21.071Z,13.83
2023-05-17T09:38:27.146Z,13.85
2023-05-17T09:39:29.839Z,13.87
2023-05-17T09:40:32.611Z,13.83
2023-05-17T09:41:45.382Z,13.88
2023-05-17T09:42:49.338Z,13.83
2023-05-17T09:43:51.453Z,13.79
2023-05-17T09:44:57.599Z,13.79
2023-05-17T09:45:59.628Z,13.68
2023-05-17T09:47:02.286Z,13.63
2023-05-17T09:48:14.787Z,13.52
2023-05-17T09:49:18.839Z,13.46
2023-05-17T09:50:23.771Z,13.32
2023-05-17T09:51:33.789Z,13.24
2023-05-17T09:52:37.436Z,13.35
2023-05-17T09:53:40.861Z,13.42
2023-05-17T09:54:43.571Z,13.48
2023-05-17T09:55:48.140Z,13.47
2023-05-17T09:56:57.583Z,13.49
2023-05-17T09:58:03.599Z,13.43
2023-05-17T09:59:13.198Z,13.45
2023-05-17T10:00:19.592Z,13.36
2023-05-17T10:01:24.143Z,13.39
2023-05-17T10:02:28.166Z,13.44
2023-05-17T10:03:33.415Z,13.59
2023-05-17T10:04:38.112Z,13.77
2023-05-17T10:05:43.928Z,13.93
2023-05-17T10:06:50.702Z,14.21
2023-05-17T10:07:57.530Z,14.23
2023-05-17T10:09:02.326Z,14.21
2023-05-17T10:10:13.601Z,14.14
2023-05-17T10:11:16.039Z,14.03
2023-05-17T10:12:23.828Z,14.04
2023-05-17T10:13:33.358Z,13.91
2023-05-17T10:14:37.106Z,13.91
2023-05-17T10:15:41.005Z,13.83
2023-05-17T10:16:43.698Z,13.71
2023-05-17T10:17:46.839Z,13.67
2023-05-17T10:18:49.502Z,13.66
2023-05-17T10:19:53.525Z,13.64
2023-05-17T10:20:57.128Z,13.63
2023-05-17T10:22:08.368Z,13.71
2023-05-17T10:23:22.259Z,13.83
2023-05-17T10:24:24.684Z,13.88
2023-05-17T10:25:28.334Z,13.87
2023-05-17T10:26:30.900Z,13.80
2023-05-17T10:27:35.220Z,13.78
2023-05-17T10:28:37.753Z,13.77
2023-05-17T10:29:41.521Z,13.58
2023-05-17T10:30:44.098Z,13.58
2023-05-17T10:31:47.902Z,13.64
2023-05-17T10:32:50.512Z,13.76
2023-05-17T10:33:54.171Z,13.86
2023-05-17T10:35:10.401Z,13.72
2023-05-17T10:36:18.213Z,13.70
2023-05-17T10:37:23.983Z,13.83
2023-05-17T10:38:38.597Z,13.83
2023-05-17T10:39:46.831Z,13.93
2023-05-17T10:40:51.669Z,14.09
2023-05-17T10:42:07.219Z,14.23
2023-05-17T10:43:19.637Z,14.35
2023-05-17T10:44:22.085Z,14.49
2023-05-17T10:45:27.060Z,14.67
2023-05-17T10:46:31.506Z,14.84
2023-05-17T10:47:34.926Z,14.99
2023-05-17T10:48:37.094Z,14.98
2023-05-17T10:49:41.446Z,15.04
2023-05-17T10:50:54.423Z,15.14
2023-05-17T10:52:13.350Z,15.18
2023-05-17T10:53:16.297Z,15.17
2023-05-17T10:54:18.674Z,15.10
2023-05-17T10:55:22.282Z,15.17
2023-05-17T10:56:24.688Z,15.17
2023-05-17T10:57:46.825Z,15.19
2023-05-17T10:59:17.690Z,15.28
2023-05-17T11:00:22.036Z,15.40
2023-05-17T11:01:51.847Z,15.48
2023-05-17T11:03:13.833Z,15.47
2023-05-17T11:04:25.465Z,15.46
2023-05-17T11:05:28.909Z,15.26
2023-05-17T11:06:37.003Z,15.00
2023-05-17T11:07:40.845Z,14.91
2023-05-17T11:08:47.508Z,14.88
2023-05-17T11:09:51.720Z,14.87
2023-05-17T11:11:10.182Z,14.79
2023-05-17T11:12:14.070Z,14.67
2023-05-17T11:13:26.172Z,14.58
2023-05-17T11:14:44.497Z,14.52
2023-05-17T11:16:04.157Z,14.55
2023-05-17T11:17:14.510Z,14.64
2023-05-17T11:18:29.696Z,14.77
2023-05-17T11:19:33.629Z,14.86
2023-05-17T11:20:37.690Z,15.01
2023-05-17T11:21:46.323Z,15.10
2023-05-17T11:22:58.508Z,15.14
2023-05-17T11:24:03.720Z,15.18
2023-05-17T11:25:09.676Z,15.28
2023-05-17T11:26:18.032Z,15.33
2023-05-17T11:27:20.866Z,15.24
2023-05-17T11:28:23.628Z,15.20
2023-05-17T11:29:30.626Z,15.19
2023-05-17T11:30:33.980Z,15.20
2023-05-17T11:31:38.754Z,15.30
2023-05-17T11:32:47.367Z,15.43
2023-05-17T11:33:50.370Z,15.53
2023-05-17T11:34:52.493Z,15.66
2023-05-17T11:35:55.972Z,15.82
2023-05-17T11:36:58.653Z,15.94
2023-05-17T11:38:15.038Z,15.98
2023-05-17T11:39:20.930Z,16.08
2023-05-17T11:40:28.101Z,16.30
2023-05-17T11:41:31.249Z,16.54
2023-05-17T11:42:33.266Z,16.73
2023-05-17T11:43:36.066Z,16.85
2023-05-17T11:44:41.462Z,17.04
2023-05-17T11:45:44.627Z,17.19
2023-05-17T11:46:47.474Z,17.36
2023-05-17T11:47:49.480Z,17.62
2023-05-17T11:48:53.921Z,17.85
2023-05-17T11:50:00.417Z,17.95
2023-05-17T11:51:03.530Z,17.88
2023-05-17T11:52:09.043Z,18.07
2023-05-17T11:53:11.565Z,18.15
2023-05-17T11:54:15.471Z,18.22
2023-05-17T11:55:18.611Z,18.25
2023-05-17T11:56:26.513Z,18.45
2023-05-17T11:57:35.412Z,18.44
2023-05-17T11:58:38.610Z,18.08
2023-05-17T11:59:43.044Z,17.59
2023-05-17T12:00:46.283Z,17.46
2023-05-17T12:01:49.855Z,17.30
2023-05-17T12:02:52.554Z,17.31
2023-05-17T12:03:59.140Z,17.20
2023-05-17T12:05:01.086Z,16.99
2023-05-17T12:06:07.017Z,16.79
2023-05-17T12:07:10.458Z,16.52
2023-05-17T12:08:14.219Z,16.41
2023-05-17T12:09:17.786Z,16.35
2023-05-17T12:10:19.736Z,16.46
2023-05-17T12:11:22.998Z,16.48
2023-05-17T12:12:26.088Z,16.49
2023-05-17T12:13:30.360Z,16.56
2023-05-17T12:14:32.960Z,16.47
2023-05-17T12:15:37.299Z,16.44
2023-05-17T12:16:44.931Z,16.20
2023-05-17T12:17:51.536Z,16.15
2023-05-17T12:18:54.788Z,15.99
2023-05-17T12:20:06.899Z,16.03
2023-05-17T12:21:13.506Z,15.99
2023-05-17T12:22:16.276Z,16.04
2023-05-17T12:23:26.273Z,16.13
2023-05-17T12:24:38.643Z,16.18
2023-05-17T12:25:40.665Z,16.39
2023-05-17T12:26:46.247Z,16.56
2023-05-17T12:27:47.976Z,16.67
2023-05-17T12:28:54.964Z,16.80
2023-05-17T12:30:15.660Z,16.94
2023-05-17T12:31:25.480Z,17.10
2023-05-17T12:32:27.439Z,17.32
2023-05-17T12:33:33.012Z,17.55
2023-05-17T12:34:36.465Z,17.61
2023-05-17T12:35:38.689Z,17.57
2023-05-17T12:36:42.053Z,17.48
2023-05-17T12:37:44.204Z,17.55
2023-05-17T12:38:48.348Z,17.55
2023-05-17T12:39:51.428Z,17.43
2023-05-17T12:40:53.342Z,17.45
2023-05-17T12:41:57.212Z,17.59
2023-05-17T12:43:03.061Z,17.73
2023-05-17T12:44:15.514Z,17.82
2023-05-17T12:45:19.007Z,17.81
2023-05-17T12:46:24.245Z,17.64
2023-05-17T12:47:31.640Z,17.46
2023-05-17T12:48:34.852Z,17.25
2023-05-17T12:49:40.128Z,16.98
2023-05-17T12:50:45.783Z,16.78
2023-05-17T12:51:49.500Z,16.65
2023-05-17T12:52:51.604Z,16.63
2023-05-17T13:24:18.168Z,17.21
2023-05-17T13:25:20.542Z,17.17
2023-05-17T13:26:23.244Z,17.26
2023-05-17T13:27:26.119Z,17.31
2023-05-17T13:28:27.886Z,17.33
2023-05-17T13:29:38.692Z,17.27
2023-05-17T13:30:45.884Z,17.28
2023-05-17T13:31:48.620Z,17.18
2023-05-17T13:32:51.624Z,17.08
2023-05-17T13:33:54.677Z,16.98
2023-05-17T13:35:02.042Z,16.94
2023-05-17T13:36:04.280Z,16.92
2023-05-17T13:37:10.346Z,17.00
2023-05-17T13:38:14.619Z,17.17
2023-05-17T13:39:17.697Z,17.24
2023-05-17T13:40:20.494Z,17.25
2023-05-17T13:41:22.298Z,17.41
2023-05-17T13:42:25.012Z,17.54
2023-05-17T13:43:27.741Z,17.67
2023-05-17T13:44:29.546Z,17.92
2023-05-17T13:45:32.823Z,18.04
2023-05-17T13:46:34.707Z,18.09
2023-05-17T13:47:37.502Z,17.80
2023-05-17T13:48:42.608Z,17.88
2023-05-17T13:49:44.860Z,18.00
2023-05-17T13:50:47.720Z,17.99
2023-05-17T13:51:50.739Z,18.02
2023-05-17T13:52:53.423Z,17.96
2023-05-17T13:53:56.373Z,17.85
2023-05-17T13:54:59.658Z,17.72
2023-05-17T13:56:02.371Z,17.60
2023-05-17T13:57:04.864Z,17.41
2023-05-17T13:58:07.519Z,17.32
2023-05-17T13:59:09.300Z,17.22
2023-05-17T14:00:12.993Z,17.22
2023-05-17T14:01:15.720Z,17.28
2023-05-17T14:02:17.518Z,17.33
2023-05-17T14:03:21.387Z,17.51
2023-05-17T14:04:23.417Z,17.67
2023-05-17T14:05:26.745Z,17.94
2023-05-17T14:06:28.840Z,18.21
2023-05-17T14:07:31.791Z,18.30
2023-05-17T14:08:34.265Z,18.38
2023-05-17T14:09:37.160Z,18.36
2023-05-17T14:10:40.434Z,18.21
2023-05-17T14:11:43.350Z,18.09
2023-05-17T14:12:45.160Z,17.86
2023-05-17T14:13:47.980Z,17.40
2023-05-17T14:14:49.774Z,17.12
2023-05-17T14:15:52.523Z,16.84
2023-05-17T14:16:54.350Z,16.56
2023-05-17T14:17:57.275Z,16.50
2023-05-17T14:19:04.210Z,16.49
2023-05-17T14:20:08.126Z,16.61
2023-05-17T14:21:11.026Z,16.81
2023-05-17T14:22:13.814Z,16.98
2023-05-17T14:23:16.542Z,17.10
2023-05-17T14:24:18.500Z,17.38
2023-05-17T14:25:24.546Z,17.66
2023-05-17T14:26:27.653Z,17.91
2023-05-17T14:27:30.390Z,18.11
2023-05-17T14:28:32.424Z,18.38
2023-05-17T14:29:35.245Z,18.48
2023-05-17T14:30:37.077Z,18.49
2023-05-17T14:31:39.748Z,18.48
2023-05-17T14:32:42.777Z,18.29
2023-05-17T14:33:44.631Z,18.14
2023-05-17T14:34:47.451Z,18.01
2023-05-17T14:35:50.176Z,18.07
2023-05-17T14:36:52.964Z,18.11
2023-05-17T14:37:55.651Z,18.13
2023-05-17T14:38:57.458Z,18.08
2023-05-17T14:40:06.364Z,18.06
2023-05-17T14:41:09.595Z,17.82
2023-05-17T14:42:13.753Z,17.63
2023-05-17T14:43:16.670Z,17.52
2023-05-17T14:44:18.544Z,17.36
2023-05-17T14:45:21.394Z,17.41
2023-05-17T14:46:23.664Z,17.38
2023-05-17T14:47:26.601Z,17.46
2023-05-17T14:48:31.149Z,17.42
2023-05-17T14:49:33.039Z,17.36
2023-05-17T14:50:35.871Z,17.21
2023-05-17T14:51:37.911Z,17.30
2023-05-17T14:52:40.688Z,17.37
2023-05-17T14:53:43.014Z,17.51
2023-05-17T14:54:45.837Z,17.51
2023-05-17T14:55:47.727Z,17.64
2023-05-17T14:56:50.405Z,17.88
2023-05-17T14:57:54.892Z,17.98
2023-05-17T14:58:57.762Z,18.18
2023-05-17T15:00:00.635Z,18.40
2023-05-17T15:01:05.739Z,18.61
2023-05-17T15:02:09.306Z,18.56
2023-05-17T15:03:12.213Z,18.55
2023-05-17T15:04:14.458Z,18.60
2023-05-17T15:05:17.829Z,18.78
2023-05-17T15:06:24.636Z,18.90
2023-05-17T15:07:26.672Z,19.02
2023-05-17T15:08:29.477Z,19.21
2023-05-17T15:09:31.256Z,19.18
2023-05-17T15:10:35.142Z,19.24
2023-05-17T15:11:36.893Z,19.05
2023-05-17T15:12:39.597Z,18.83
2023-05-17T15:13:42.714Z,18.72
2023-05-17T15:14:46.537Z,18.64
2023-05-17T15:15:48.439Z,18.78
2023-05-17T15:16:52.737Z,18.91
2023-05-17T15:17:54.765Z,19.03
2023-05-17T15:18:58.090Z,19.12
2023-05-17T15:20:00.064Z,19.27
2023-05-17T15:21:02.998Z,19.42
2023-05-17T15:22:05.861Z,19.40
2023-05-17T15:23:07.834Z,19.13
2023-05-17T15:24:12.578Z,19.13
2023-05-17T15:25:17.253Z,19.04
2023-05-17T15:26:19.182Z,18.81
2023-05-17T15:27:21.938Z,18.80
2023-05-17T15:28:23.808Z,18.68
2023-05-17T15:29:28.760Z,18.66
2023-05-17T15:30:30.739Z,18.62
2023-05-17T15:31:33.762Z,18.75
2023-05-17T15:32:35.618Z,18.85
2023-05-17T15:33:39.449Z,18.84
2023-05-17T15:34:42.588Z,18.92
2023-05-17T15:35:44.700Z,19.01
2023-05-17T15:36:48.038Z,18.93
2023-05-17T15:37:51.773Z,18.71
2023-05-17T15:38:54.769Z,18.54
2023-05-17T15:39:57.471Z,18.61
2023-05-17T15:41:03.873Z,18.71
2023-05-17T15:42:06.885Z,18.72
2023-05-17T15:43:08.589Z,18.83
2023-05-17T15:44:11.303Z,18.78
2023-05-17T15:45:14.433Z,18.80
2023-05-17T15:46:18.059Z,18.90
2023-05-17T15:47:21.885Z,19.02
2023-05-17T15:48:29.073Z,19.13
2023-05-17T15:49:32.310Z,19.25
2023-05-17T15:50:34.274Z,19.31
2023-05-17T15:51:37.242Z,19.54
2023-05-17T15:52:39.588Z,19.74
2023-05-17T15:53:42.485Z,19.93
2023-05-17T15:54:47.091Z,20.11
2023-05-17T15:55:51.102Z,20.18
2023-05-17T15:56:54.109Z,20.28
2023-05-17T15:57:56.014Z,20.28
2023-05-17T15:59:01.197Z,20.30
2023-05-17T16:00:05.447Z,20.31
2023-05-17T16:01:12.407Z,20.46
2023-05-17T16:02:15.599Z,20.45
2023-05-17T16:03:17.643Z,20.38
2023-05-17T16:04:21.483Z,20.41
2023-05-17T16:05:23.281Z,20.41
2023-05-17T16:06:26.812Z,20.14
2023-05-17T16:07:28.946Z,19.90
2023-05-17T16:08:31.936Z,19.66
2023-05-17T16:09:34.928Z,19.21
2023-05-17T16:10:37.177Z,19.28
2023-05-17T16:11:40.052Z,19.35
2023-05-17T16:12:42.160Z,19.48
2023-05-17T16:13:45.033Z,19.47
2023-05-17T16:14:47.040Z,19.30
2023-05-17T16:15:50.081Z,19.27
2023-05-17T16:16:53.150Z,18.95
2023-05-17T16:17:56.171Z,19.03
2023-05-17T16:18:59.245Z,19.00
2023-05-17T16:20:01.669Z,19.06
2023-05-17T16:21:06.393Z,19.07
2023-05-17T16:22:09.738Z,18.91
2023-05-17T16:23:12.786Z,18.75
2023-05-17T16:24:15.811Z,18.75
2023-05-17T16:25:18.414Z,18.90
2023-05-17T16:26:22.313Z,19.05
2023-05-17T16:27:24.216Z,19.33
2023-05-17T16:28:27.435Z,19.55
2023-05-17T16:29:29.162Z,19.59
2023-05-17T16:30:32.856Z,19.77
2023-05-17T16:31:35.226Z,19.93
2023-05-17T16:32:39.350Z,20.09
2023-05-17T16:33:42.521Z,20.13
2023-05-17T16:34:45.549Z,20.28
2023-05-17T16:35:48.659Z,20.43
2023-05-17T16:36:51.485Z,20.50
2023-05-17T16:37:53.281Z,20.64
2023-05-17T16:38:56.027Z,20.59
2023-05-17T16:39:58.001Z,20.51
2023-05-17T16:41:03.228Z,20.30
2023-05-17T16:42:05.647Z,20.05
2023-05-17T16:43:08.462Z,20.10
2023-05-17T16:44:10.353Z,20.03
2023-05-17T16:45:13.124Z,19.78
2023-05-17T16:46:14.941Z,19.67
2023-05-17T16:47:17.813Z,19.64
2023-05-17T16:48:21.178Z,19.54
2023-05-17T16:49:23.889Z,19.43
2023-05-17T16:50:25.776Z,19.44
2023-05-17T16:51:28.558Z,19.47
2023-05-17T16:52:30.355Z,19.58
2023-05-17T16:53:33.060Z,19.60
2023-05-17T16:54:35.629Z,19.65
2023-05-17T16:55:38.469Z,19.79
2023-05-17T16:56:41.331Z,19.86
2023-05-17T16:57:43.838Z,19.90
2023-05-17T16:58:46.663Z,19.88
2023-05-17T16:59:48.513Z,19.85
2023-05-17T17:00:51.844Z,19.83
2023-05-17T17:01:53.811Z,19.93
2023-05-17T17:02:56.693Z,20.06
2023-05-17T17:04:01.692Z,20.11
2023-05-17T17:05:04.742Z,20.16
2023-05-17T17:06:07.666Z,20.21
2023-05-17T17:07:12.601Z,20.18
2023-05-17T17:08:16.859Z,20.15
2023-05-17T17:09:20.217Z,19.95
2023-05-17T17:10:25.244Z,19.75
2023-05-17T17:11:31.802Z,19.74
2023-05-17T17:12:36.195Z,19.75
2023-05-17T17:13:41.315Z,19.77
2023-05-17T17:14:44.967Z,19.83
2023-05-17T17:15:51.628Z,19.94
2023-05-17T17:16:55.311Z,20.05
2023-05-17T17:18:00.246Z,20.11
2023-05-17T17:19:05.768Z,20.12
2023-05-17T17:20:11.737Z,20.15
2023-05-17T17:21:15.466Z,20.18
2023-05-17T17:22:19.580Z,20.22
2023-05-17T17:23:22.331Z,20.14
2023-05-17T17:24:26.980Z,20.09
2023-05-17T17:25:31.397Z,20.03
2023-05-17T17:26:35.869Z,20.00
2023-05-17T17:27:40.667Z,20.00
2023-05-17T17:28:43.452Z,19.94
2023-05-17T17:29:47.252Z,19.80
2023-05-17T17:30:50.781Z,19.67
2023-05-17T17:31:57.611Z,19.39
2023-05-17T17:33:01.981Z,19.24
2023-05-17T17:34:08.541Z,19.02
2023-05-17T17:35:15.903Z,18.92
2023-05-17T17:36:22.069Z,18.82
2023-05-17T17:37:28.285Z,18.61
2023-05-17T17:38:34.039Z,18.44
2023-05-17T17:39:38.944Z,18.28
2023-05-17T17:40:44.417Z,18.20
2023-05-17T17:41:48.586Z,18.19
2023-05-17T17:42:53.536Z,18.12
2023-05-17T17:43:57.317Z,18.02
2023-05-17T17:45:02.220Z,18.00
2023-05-17T17:46:05.453Z,17.87
2023-05-17T17:47:10.406Z,17.79
2023-05-17T17:48:15.567Z,17.63
2023-05-17T17:49:21.190Z,17.58
2023-05-17T17:50:25.910Z,17.57
2023-05-17T17:51:29.142Z,17.46
2023-05-17T17:52:37.726Z,17.45
2023-05-17T17:53:42.548Z,17.34
2023-05-17T17:54:47.208Z,17.18
2023-05-17T17:55:50.754Z,17.16
2023-05-17T17:57:01.723Z,17.18
2023-05-17T17:58:07.339Z,17.11
2023-05-17T17:59:13.303Z,17.09
2023-05-17T18:00:20.242Z,17.11
2023-05-17T18:01:25.103Z,17.02
2023-05-17T18:02:31.018Z,17.02
2023-05-17T18:03:35.840Z,16.94
2023-05-17T18:04:41.503Z,16.90
2023-05-17T18:05:44.994Z,16.90
2023-05-17T18:06:50.403Z,16.88
2023-05-17T18:07:56.218Z,16.81
2023-05-17T18:08:59.802Z,16.75
2023-05-17T18:10:07.292Z,16.65
2023-05-17T18:11:11.752Z,16.57
2023-05-17T18:12:17.015Z,16.55
2023-05-17T18:13:23.503Z,16.54
2023-05-17T18:14:27.738Z,16.50
2023-05-17T18:15:33.673Z,16.38
2023-05-17T18:16:39.134Z,16.36
2023-05-17T18:17:49.823Z,16.22
2023-05-17T18:18:55.005Z,16.18
2023-05-17T18:20:02.260Z,16.17
2023-05-17T18:21:11.126Z,16.12
2023-05-17T18:22:17.440Z,16.04
2023-05-17T18:23:23.180Z,15.99
2023-05-17T18:24:27.296Z,15.83
2023-05-17T18:25:31.994Z,15.72
2023-05-17T18:26:37.900Z,15.69
2023-05-17T18:27:44.319Z,15.68
2023-05-17T18:28:48.946Z,15.64
2023-05-17T18:29:54.671Z,15.60
2023-05-17T18:31:01.102Z,15.55
2023-05-17T18:32:09.476Z,15.49
2023-05-17T18:33:15.035Z,15.41
2023-05-17T18:34:22.815Z,15.31
2023-05-17T18:35:28.680Z,15.23
2023-05-17T18:36:36.720Z,15.16
2023-05-17T18:37:42.676Z,15.08
2023-05-17T18:38:47.441Z,14.99
2023-05-17T18:39:55.035Z,14.96
2023-05-17T18:40:59.704Z,14.91
2023-05-17T18:42:05.032Z,14.87
2023-05-17T18:43:09.662Z,14.83
2023-05-17T18:44:16.887Z,14.80
2023-05-17T18:45:24.968Z,14.76
2023-05-17T18:46:30.450Z,14.73
2023-05-17T18:47:36.397Z,14.71
2023-05-17T18:48:42.152Z,14.67
2023-05-17T18:49:50.419Z,14.61
2023-05-17T18:50:58.854Z,14.55
2023-05-17T18:52:04.134Z,14.49
2023-05-17T18:53:11.036Z,14.42
2023-05-17T18:54:20.394Z,14.37
2023-05-17T18:55:25.463Z,14.28
2023-05-17T18:56:33.734Z,14.22
2023-05-17T18:57:39.454Z,14.12
2023-05-17T18:58:48.905Z,14.00
2023-05-17T18:59:55.572Z,13.93
2023-05-17T19:01:02.846Z,13.85
2023-05-17T19:02:10.971Z,13.80
2023-05-17T19:03:18.436Z,13.68
2023-05-17T19:04:25.172Z,13.60
2023-05-17T19:05:32.010Z,13.53
2023-05-17T19:06:43.010Z,13.44
2023-05-17T19:07:50.826Z,13.34
2023-05-17T19:08:59.519Z,13.23
2023-05-17T19:10:09.759Z,13.11
2023-05-17T19:11:18.599Z,12.99
2023-05-17T19:12:30.208Z,12.88
2023-05-17T19:13:39.970Z,12.71
2023-05-17T19:14:46.704Z,12.58